createdAt,value
2022-09-23T00:00:58.810Z,6.70
2022-09-23T00:06:04.475Z,6.43
2022-09-23T00:11:07.057Z,6.72
2022-09-23T00:16:12.816Z,5.93
2022-09-23T00:21:14.626Z,6.00
2022-09-23T00:26:16.894Z,6.57
2022-09-23T00:31:20.328Z,5.97
2022-09-23T00:36:21.732Z,6.03
2022-09-23T00:41:23.648Z,6.25
2022-09-23T00:46:30.214Z,6.50
2022-09-23T00:51:34.503Z,6.45
2022-09-23T00:56:36.675Z,6.00
2022-09-23T01:01:38.712Z,6.05
2022-09-23T01:06:40.946Z,6.75
2022-09-23T01:12:02.843Z,5.80
2022-09-23T01:17:14.833Z,5.68
2022-09-23T01:22:16.170Z,6.38
2022-09-23T01:27:20.676Z,5.90
2022-09-23T01:32:42.404Z,6.45
2022-09-23T01:37:48.171Z,6.55
2022-09-23T01:42:54.945Z,6.82
2022-09-23T01:48:01.937Z,6.72
2022-09-23T01:53:10.810Z,6.82
2022-09-23T01:58:14.834Z,6.97
2022-09-23T02:03:29.382Z,6.57
2022-09-23T02:08:37.963Z,7.20
2022-09-23T02:13:54.872Z,6.57
2022-09-23T02:18:59.148Z,7.10
2022-09-23T02:24:03.825Z,6.80
2022-09-23T02:29:08.956Z,7.10
2022-09-23T02:34:39.736Z,7.25
2022-09-23T02:39:51.939Z,6.60
2022-09-23T02:44:53.459Z,6.78
2022-09-23T02:49:56.402Z,7.00
2022-09-23T02:54:57.809Z,7.50
2022-09-23T02:59:59.195Z,6.80
2022-09-23T03:05:00.529Z,7.20
2022-09-23T03:10:07.636Z,6.95
2022-09-23T03:15:26.844Z,6.80
2022-09-23T03:20:34.153Z,6.80
2022-09-23T03:25:37.280Z,7.03
2022-09-23T03:30:39.387Z,7.00
2022-09-23T03:36:07.620Z,7.53
2022-09-23T03:41:10.891Z,8.15
2022-09-23T03:46:12.946Z,6.47
2022-09-23T03:51:22.733Z,8.13
2022-09-23T04:01:25.607Z,7.88
2022-09-23T04:06:26.983Z,7.43
2022-09-23T04:11:29.004Z,8.10
2022-09-23T04:16:30.489Z,8.30
2022-09-23T04:21:32.172Z,8.82
2022-09-23T04:26:33.770Z,7.90
2022-09-23T04:31:35.235Z,7.75
2022-09-23T04:36:36.640Z,7.72
2022-09-23T04:41:38.345Z,7.43
2022-09-23T04:46:40.536Z,7.60
2022-09-23T04:51:45.646Z,7.70
2022-09-23T04:56:47.004Z,7.28
2022-09-23T05:01:48.497Z,7.15
2022-09-23T05:06:49.939Z,7.15
2022-09-23T05:11:52.591Z,6.00
2022-09-23T05:16:53.910Z,7.10
2022-09-23T05:21:55.491Z,6.53
2022-09-23T05:26:56.886Z,6.78
2022-09-23T05:31:58.261Z,6.88
2022-09-23T05:37:00.406Z,6.97
2022-09-23T05:42:01.820Z,6.80
2022-09-23T05:47:03.320Z,6.95
2022-09-23T05:52:04.816Z,7.00
2022-09-23T05:57:06.369Z,7.93
2022-09-23T06:02:09.014Z,8.45
2022-09-23T06:07:10.542Z,7.97
2022-09-23T06:12:14.113Z,7.28
2022-09-23T06:17:15.493Z,7.13
2022-09-23T06:22:17.840Z,7.72
2022-09-23T06:27:19.224Z,7.50
2022-09-23T06:32:20.734Z,7.70
2022-09-23T06:37:22.120Z,8.00
2022-09-23T06:42:23.518Z,7.53
2022-09-23T06:47:24.888Z,7.22
2022-09-23T06:52:26.809Z,6.90
2022-09-23T06:57:32.850Z,7.25
2022-09-23T07:02:34.285Z,7.65
2022-09-23T07:07:37.442Z,6.68
2022-09-23T07:12:38.831Z,6.53
2022-09-23T07:17:41.642Z,6.45
2022-09-23T07:22:44.066Z,6.70
2022-09-23T07:27:47.344Z,7.32
2022-09-23T07:32:49.414Z,7.45
2022-09-23T07:37:50.905Z,6.75
2022-09-23T07:42:52.289Z,7.55
2022-09-23T07:47:56.248Z,6.97
2022-09-23T07:52:57.771Z,8.57
2022-09-23T07:57:59.113Z,7.85
2022-09-23T08:03:00.538Z,7.85
2022-09-23T08:08:02.113Z,7.57
2022-09-23T08:13:03.537Z,7.95
2022-09-23T08:18:04.940Z,8.10
2022-09-23T08:23:06.421Z,8.32
2022-09-23T08:28:08.419Z,8.05
2022-09-23T08:33:11.009Z,8.05
2022-09-23T08:38:12.357Z,8.43
2022-09-23T08:43:31.315Z,8.40
2022-09-23T08:48:36.356Z,8.38
2022-09-23T08:53:38.140Z,8.43
2022-09-23T08:58:48.319Z,8.77
2022-09-23T09:04:00.161Z,8.05
2022-09-23T09:09:02.644Z,8.90
2022-09-23T09:14:22.626Z,9.02
2022-09-23T09:24:33.673Z,8.60
2022-09-23T09:29:39.088Z,8.40
2022-09-23T09:34:45.542Z,8.25
2022-09-23T09:39:46.933Z,8.50
2022-09-23T09:44:50.806Z,7.97
2022-09-23T09:49:59.000Z,8.05
2022-09-23T09:55:12.305Z,8.65
2022-09-23T10:00:26.400Z,8.60
2022-09-23T10:05:27.762Z,8.52
2022-09-23T10:10:32.802Z,8.57
2022-09-23T10:15:44.748Z,8.85
2022-09-23T10:20:47.896Z,7.65
2022-09-23T10:26:02.883Z,7.55
2022-09-23T10:31:05.662Z,8.48
2022-09-23T10:36:11.340Z,8.40
2022-09-23T10:41:53.189Z,8.20
2022-09-23T10:47:14.595Z,8.20
2022-09-23T10:52:28.265Z,7.80
2022-09-23T10:57:45.069Z,8.18
2022-09-23T11:02:58.783Z,7.80
2022-09-23T11:08:03.517Z,7.88
2022-09-23T11:13:10.586Z,8.20
2022-09-23T11:18:16.706Z,7.80
2022-09-23T11:23:24.124Z,8.30
2022-09-23T11:28:31.544Z,8.02
2022-09-23T11:33:37.647Z,7.38
2022-09-23T11:38:47.243Z,8.10
2022-09-23T11:49:11.360Z,8.20
2022-09-23T11:59:40.272Z,7.75
2022-09-23T12:04:54.132Z,8.20
2022-09-23T12:10:03.594Z,7.97
2022-09-23T12:15:24.694Z,7.60
2022-09-23T12:20:52.509Z,8.75
2022-09-23T12:25:56.448Z,8.55
2022-09-23T12:30:59.080Z,8.10
2022-09-23T12:36:09.097Z,8.20
2022-09-23T12:41:26.874Z,9.13
2022-09-23T12:46:28.355Z,7.82
2022-09-23T12:51:30.767Z,8.05
2022-09-23T12:56:38.738Z,7.68
2022-09-23T13:01:40.832Z,8.70
2022-09-23T13:07:01.440Z,8.40
2022-09-23T13:12:05.734Z,7.40
2022-09-23T13:17:07.096Z,8.18
2022-09-23T13:22:09.632Z,6.75
2022-09-23T13:27:30.885Z,8.23
2022-09-23T13:32:38.166Z,7.55
2022-09-23T13:37:47.625Z,6.55
2022-09-23T13:47:51.621Z,7.60
2022-09-23T13:52:59.790Z,7.00
2022-09-23T13:58:20.918Z,6.57
2022-09-23T14:03:36.654Z,6.85
2022-09-23T14:08:39.706Z,6.95
2022-09-23T14:13:42.315Z,6.50
2022-09-23T14:18:43.698Z,7.65
2022-09-23T14:23:45.346Z,7.13
2022-09-23T14:28:47.247Z,6.50
2022-09-23T14:33:48.655Z,6.65
2022-09-23T14:38:52.913Z,7.05
2022-09-23T14:43:58.783Z,7.05
2022-09-23T14:49:12.520Z,7.00
2022-09-23T14:54:35.358Z,7.35
2022-09-23T14:59:37.085Z,7.43
2022-09-23T15:04:38.493Z,7.20
2022-09-23T15:09:40.700Z,7.00
2022-09-23T15:14:46.600Z,7.68
2022-09-23T15:19:52.616Z,7.38
2022-09-23T15:24:55.078Z,7.45
2022-09-23T15:30:03.944Z,7.95
2022-09-23T15:35:06.828Z,7.57
2022-09-23T15:40:17.036Z,7.18
2022-09-23T15:45:21.869Z,8.15
2022-09-23T15:50:23.233Z,7.03
2022-09-23T15:55:24.932Z,7.22
2022-09-23T16:00:26.669Z,7.72
2022-09-23T16:05:34.865Z,7.50
2022-09-23T16:10:36.714Z,7.25
2022-09-23T16:15:39.623Z,7.70
2022-09-23T16:20:42.587Z,7.00
2022-09-23T16:25:44.486Z,7.72
2022-09-23T16:30:45.860Z,7.68
2022-09-23T16:35:47.542Z,8.10
2022-09-23T16:40:48.948Z,8.40
2022-09-23T16:45:50.324Z,7.93
2022-09-23T16:50:54.664Z,8.65
2022-09-23T16:55:57.936Z,7.95
2022-09-23T17:01:18.249Z,7.78
2022-09-23T17:06:19.797Z,7.70
2022-09-23T17:11:21.753Z,8.40
2022-09-23T17:16:30.821Z,8.82
2022-09-23T17:21:32.347Z,8.38
2022-09-23T17:26:34.145Z,8.43
2022-09-23T17:31:35.564Z,8.35
2022-09-23T17:36:39.518Z,8.45
2022-09-23T17:41:40.917Z,8.52
2022-09-23T17:46:42.741Z,9.00
2022-09-23T17:51:44.122Z,8.80
2022-09-23T17:56:45.511Z,8.75
2022-09-23T18:01:46.910Z,11.15
2022-09-23T18:06:48.380Z,10.85
2022-09-23T18:11:49.780Z,10.05
2022-09-23T18:16:52.358Z,10.50
2022-09-23T18:21:55.060Z,11.40
2022-09-23T18:27:00.510Z,10.68
2022-09-23T18:32:02.463Z,11.27
2022-09-23T18:37:11.515Z,11.77
2022-09-23T18:42:16.624Z,11.13
2022-09-23T18:47:37.948Z,11.55
2022-09-23T18:52:39.344Z,11.80
2022-09-23T18:57:41.196Z,14.60
2022-09-23T19:02:44.368Z,12.23
2022-09-23T19:07:45.733Z,11.95
2022-09-23T19:12:47.099Z,13.55
2022-09-23T19:17:48.519Z,14.18
2022-09-23T19:22:50.132Z,14.80
2022-09-23T19:27:51.736Z,14.35
2022-09-23T19:32:53.795Z,12.23
2022-09-23T19:37:57.220Z,11.93
2022-09-23T19:42:58.976Z,12.00
2022-09-23T19:48:02.110Z,10.65
2022-09-23T19:53:05.646Z,9.98
2022-09-23T19:58:07.127Z,9.82
2022-09-23T20:03:08.969Z,7.45
2022-09-23T20:08:10.343Z,6.65
2022-09-23T20:13:11.711Z,5.85
2022-09-23T20:18:13.047Z,6.20
2022-09-23T20:23:14.571Z,5.38
2022-09-23T20:28:15.978Z,5.78
2022-09-23T20:33:17.314Z,6.00
2022-09-23T20:38:18.691Z,5.47
2022-09-23T20:43:20.223Z,5.90
2022-09-23T20:48:22.643Z,8.13
2022-09-23T20:53:24.198Z,8.45
2022-09-23T20:58:27.004Z,7.38
2022-09-23T21:03:29.407Z,8.55
2022-09-23T21:08:31.436Z,8.93
2022-09-23T21:13:33.549Z,13.00
2022-09-23T21:18:38.112Z,14.43
2022-09-23T21:23:39.846Z,13.20
2022-09-23T21:28:42.254Z,15.43
2022-09-23T21:33:44.223Z,14.10
2022-09-23T21:38:45.698Z,14.40
2022-09-23T21:43:48.706Z,14.88
2022-09-23T21:48:53.311Z,15.60
2022-09-23T21:53:55.608Z,14.48
2022-09-23T21:58:58.153Z,15.50
2022-09-23T22:04:05.201Z,14.05
2022-09-23T22:09:08.897Z,13.60
2022-09-23T22:14:11.791Z,13.05
2022-09-23T22:19:13.812Z,13.70
2022-09-23T22:24:15.315Z,12.70
2022-09-23T22:29:35.462Z,12.43
2022-09-23T22:34:52.543Z,12.65
2022-09-23T22:39:54.455Z,11.13
2022-09-23T22:44:55.788Z,9.40
2022-09-23T22:49:57.110Z,10.15
2022-09-23T22:54:58.465Z,10.50
2022-09-23T22:59:59.772Z,9.95
2022-09-23T23:05:01.149Z,11.70
2022-09-23T23:10:03.268Z,12.07
2022-09-23T23:15:04.835Z,12.88
2022-09-23T23:20:06.554Z,12.70
2022-09-23T23:25:08.100Z,13.35
2022-09-23T23:30:09.726Z,11.68
2022-09-23T23:35:11.061Z,12.18
2022-09-23T23:40:12.462Z,10.75
2022-09-23T23:45:13.978Z,11.00
2022-09-23T23:50:15.338Z,10.65
2022-09-23T23:55:17.030Z,9.32
